createdAt,value
2019-04-27T00:03:41.327Z,73.60
2019-04-27T00:07:55.672Z,76.10
2019-04-27T00:12:00.653Z,76.80
2019-04-27T00:16:10.018Z,76.00
2019-04-27T00:20:24.067Z,72.00
2019-04-27T00:24:29.811Z,78.40
2019-04-27T00:28:35.719Z,74.60
2019-04-27T00:32:43.054Z,73.90
2019-04-27T00:37:05.443Z,72.30
2019-04-27T00:41:14.240Z,75.20
2019-04-27T00:45:20.311Z,77.50
2019-04-27T00:49:26.078Z,71.40
2019-04-27T00:53:33.400Z,75.00
2019-04-27T00:57:58.926Z,73.90
2019-04-27T01:02:07.135Z,73.20
2019-04-27T01:06:14.781Z,82.90
2019-04-27T01:10:23.270Z,77.80
2019-04-27T01:14:28.975Z,73.30
2019-04-27T01:18:34.706Z,74.00
2019-04-27T01:22:40.375Z,76.80
2019-04-27T01:26:54.486Z,79.60
2019-04-27T01:31:01.815Z,79.40
2019-04-27T01:35:08.677Z,79.10
2019-04-27T01:39:16.380Z,81.20
2019-04-27T01:43:22.051Z,82.30
2019-04-27T01:47:28.946Z,81.80
2019-04-27T01:51:34.817Z,82.00
2019-04-27T01:55:40.781Z,81.90
2019-04-27T01:59:46.603Z,81.80
2019-04-27T02:04:03.891Z,82.50
2019-04-27T02:08:10.186Z,81.80
2019-04-27T02:12:15.943Z,81.60
2019-04-27T02:16:21.655Z,81.50
2019-04-27T02:20:29.954Z,81.80
2019-04-27T02:24:35.770Z,82.90
2019-04-27T02:28:43.098Z,80.40
2019-04-27T02:33:02.626Z,80.60
2019-04-27T02:37:10.215Z,80.40
2019-04-27T02:41:15.753Z,80.20
2019-04-27T02:45:22.197Z,78.00
2019-04-27T02:49:30.289Z,78.10
2019-04-27T02:53:54.328Z,78.00
2019-04-27T02:58:00.150Z,79.30
2019-04-27T03:02:23.468Z,80.80
2019-04-27T03:06:30.067Z,79.40
2019-04-27T03:10:36.013Z,78.60
2019-04-27T03:14:41.461Z,79.90
2019-04-27T03:18:50.793Z,80.60
2019-04-27T03:23:00.112Z,81.10
2019-04-27T03:27:06.966Z,81.00
2019-04-27T03:31:14.075Z,81.50
2019-04-27T03:35:22.606Z,81.20
2019-04-27T03:39:29.992Z,81.70
2019-04-27T03:43:35.269Z,82.20
2019-04-27T03:47:41.110Z,82.60
2019-04-27T03:51:49.905Z,83.10
2019-04-27T03:56:04.563Z,87.20
2019-04-27T04:00:12.601Z,87.20
2019-04-27T04:04:19.638Z,87.00
2019-04-27T04:08:25.403Z,86.80
2019-04-27T04:12:40.000Z,87.00
2019-04-27T04:16:49.912Z,86.70
2019-04-27T04:20:55.606Z,88.00
2019-04-27T04:25:01.267Z,88.30
2019-04-27T04:29:06.947Z,88.10
2019-04-27T04:33:12.612Z,88.90
2019-04-27T04:37:19.618Z,89.50
2019-04-27T04:41:30.356Z,89.30
2019-04-27T04:45:46.273Z,89.50
2019-04-27T04:50:07.367Z,88.60
2019-04-27T04:53:59.919Z,88.20
2019-04-27T04:58:05.693Z,87.90
2019-04-27T05:02:11.426Z,87.50
2019-04-27T05:06:18.824Z,87.30
2019-04-27T05:10:24.670Z,87.30
2019-04-27T05:14:30.313Z,87.40
2019-04-27T05:18:35.995Z,87.30
2019-04-27T05:22:41.670Z,87.10
2019-04-27T05:26:48.741Z,85.90
2019-04-27T05:30:54.517Z,85.40
2019-04-27T05:35:00.185Z,84.90
2019-04-27T05:39:09.778Z,85.30
2019-04-27T05:43:17.168Z,84.30
2019-04-27T05:47:24.511Z,81.90
2019-04-27T05:51:36.647Z,81.60
2019-04-27T05:55:39.257Z,81.60
2019-04-27T05:59:45.972Z,80.30
2019-04-27T06:03:51.664Z,81.10
2019-04-27T06:07:58.933Z,79.30
2019-04-27T06:12:04.743Z,78.00
2019-04-27T06:16:10.424Z,78.60
2019-04-27T06:20:16.325Z,78.90
2019-04-27T06:24:22.009Z,78.20
2019-04-27T06:28:29.025Z,79.80
2019-04-27T06:32:35.100Z,79.60
2019-04-27T06:36:41.748Z,79.30
2019-04-27T06:40:48.958Z,79.60
2019-04-27T06:44:54.694Z,77.40
2019-04-27T06:49:00.387Z,75.30
2019-04-27T06:53:06.141Z,76.00
2019-04-27T06:57:11.836Z,75.50
2019-04-27T07:01:19.055Z,75.10
2019-04-27T07:05:25.820Z,73.30
2019-04-27T07:09:31.514Z,72.90
2019-04-27T07:13:38.928Z,70.80
2019-04-27T07:17:44.695Z,67.60
2019-04-27T07:21:50.514Z,66.70
2019-04-27T07:25:56.369Z,65.00
2019-04-27T07:30:02.192Z,67.10
2019-04-27T07:34:09.374Z,66.00
2019-04-27T07:38:15.173Z,66.60
2019-04-27T07:42:21.983Z,69.80
2019-04-27T07:46:29.940Z,67.70
2019-04-27T07:50:35.293Z,63.50
2019-04-27T07:54:41.125Z,66.60
2019-04-27T07:58:46.828Z,67.10
2019-04-27T08:02:52.520Z,71.30
2019-04-27T08:06:59.547Z,67.90
2019-04-27T08:11:05.410Z,69.30
2019-04-27T08:15:11.687Z,70.30
2019-04-27T08:19:17.393Z,68.90
2019-04-27T08:23:23.079Z,67.30
2019-04-27T08:27:30.543Z,62.10
2019-04-27T08:31:40.583Z,64.10
2019-04-27T08:35:46.353Z,61.40
2019-04-27T08:39:52.278Z,58.80
2019-04-27T08:43:58.730Z,68.30
2019-04-27T08:48:04.588Z,59.80
2019-04-27T08:52:10.291Z,66.50
2019-04-27T08:56:16.086Z,64.10
2019-04-27T09:00:21.988Z,62.20
2019-04-27T09:04:28.853Z,63.10
2019-04-27T09:08:36.181Z,63.10
2019-04-27T09:12:55.332Z,64.00
2019-04-27T09:17:05.761Z,68.10
2019-04-27T09:21:11.514Z,70.30
2019-04-27T09:25:17.216Z,71.80
2019-04-27T09:29:23.886Z,71.40
2019-04-27T09:33:29.595Z,70.00
2019-04-27T09:37:36.678Z,67.30
2019-04-27T09:41:42.387Z,70.00
2019-04-27T09:45:49.171Z,71.30
2019-04-27T09:49:56.483Z,72.80
2019-04-27T09:54:03.210Z,71.70
2019-04-27T09:58:08.908Z,73.30
2019-04-27T10:02:16.401Z,72.80
2019-04-27T10:06:22.247Z,73.80
2019-04-27T10:10:28.027Z,73.20
2019-04-27T10:14:33.792Z,72.30
2019-04-27T10:18:39.593Z,74.00
2019-04-27T10:22:46.401Z,79.50
2019-04-27T10:26:52.364Z,80.60
2019-04-27T10:30:58.135Z,80.00
2019-04-27T10:35:05.494Z,82.70
2019-04-27T10:39:14.711Z,80.00
2019-04-27T10:43:20.437Z,79.10
2019-04-27T10:47:26.326Z,77.80
2019-04-27T10:51:32.133Z,78.00
2019-04-27T10:55:37.861Z,74.90
2019-04-27T10:59:43.553Z,74.50
2019-04-27T11:03:55.481Z,73.50
2019-04-27T11:08:01.305Z,71.00
2019-04-27T11:12:07.321Z,71.50
2019-04-27T11:16:13.042Z,71.30
2019-04-27T11:20:18.970Z,64.30
2019-04-27T11:24:24.722Z,65.40
2019-04-27T11:28:30.427Z,63.60
2019-04-27T11:32:36.185Z,64.00
2019-04-27T11:36:45.523Z,63.80
2019-04-27T11:40:51.033Z,62.90
2019-04-27T11:44:58.311Z,60.50
2019-04-27T11:49:04.349Z,59.70
2019-04-27T11:53:22.080Z,58.40
2019-04-27T11:57:17.705Z,56.30
2019-04-27T12:01:24.445Z,57.30
2019-04-27T12:05:30.185Z,56.40
2019-04-27T12:09:35.978Z,54.50
2019-04-27T12:13:41.759Z,62.50
2019-04-27T12:17:47.449Z,55.80
2019-04-27T12:21:53.161Z,56.20
2019-04-27T12:25:58.946Z,55.60
2019-04-27T12:30:10.330Z,55.40
2019-04-27T12:34:16.346Z,56.40
2019-04-27T12:38:22.059Z,56.60
2019-04-27T12:42:27.815Z,57.50
2019-04-27T12:46:33.713Z,55.70
2019-04-27T12:50:39.516Z,56.40
2019-04-27T12:54:52.779Z,57.30
2019-04-27T12:59:03.020Z,56.00
2019-04-27T13:03:09.727Z,53.30
2019-04-27T13:07:16.005Z,52.20
2019-04-27T13:11:22.996Z,52.80
2019-04-27T13:15:28.814Z,54.60
2019-04-27T13:19:36.437Z,54.10
2019-04-27T13:23:42.925Z,51.00
2019-04-27T13:27:51.016Z,50.90
2019-04-27T13:31:57.726Z,48.00
2019-04-27T13:36:03.542Z,48.70
2019-04-27T13:40:12.083Z,49.00
2019-04-27T13:44:19.069Z,51.60
2019-04-27T13:48:42.356Z,53.70
2019-04-27T13:52:48.074Z,54.10
2019-04-27T13:56:53.840Z,55.50
2019-04-27T14:00:59.712Z,54.20
2019-04-27T14:05:06.998Z,52.70
2019-04-27T14:09:12.840Z,52.90
2019-04-27T14:13:19.871Z,50.90
2019-04-27T14:17:25.553Z,51.70
2019-04-27T14:21:32.873Z,52.50
2019-04-27T14:25:39.098Z,54.80
2019-04-27T14:29:44.903Z,56.40
2019-04-27T14:33:52.217Z,57.60
2019-04-27T14:37:58.166Z,57.30
2019-04-27T14:42:04.042Z,60.50
2019-04-27T14:46:09.888Z,65.00
2019-04-27T14:50:15.889Z,73.90
2019-04-27T14:54:21.624Z,82.60
2019-04-27T14:58:28.304Z,76.70
2019-04-27T15:02:34.192Z,73.50
2019-04-27T15:06:39.892Z,74.40
2019-04-27T15:10:46.615Z,75.90
2019-04-27T15:14:53.298Z,73.30
2019-04-27T15:19:07.472Z,74.40
2019-04-27T15:23:13.666Z,69.10
2019-04-27T15:27:21.098Z,71.10
2019-04-27T15:31:31.192Z,70.20
2019-04-27T15:35:44.052Z,62.30
2019-04-27T15:40:11.366Z,61.10
2019-04-27T15:44:14.613Z,65.50
2019-04-27T15:48:20.391Z,66.90
2019-04-27T15:52:30.190Z,69.80
2019-04-27T15:56:35.184Z,67.00
2019-04-27T16:00:41.219Z,56.20
2019-04-27T16:04:49.830Z,56.80
2019-04-27T16:08:54.359Z,53.40
2019-04-27T16:13:06.545Z,53.40
2019-04-27T16:17:11.194Z,53.60
2019-04-27T16:21:15.359Z,53.80
2019-04-27T16:25:23.528Z,55.90
2019-04-27T16:29:31.479Z,55.30
2019-04-27T16:33:39.093Z,56.60
2019-04-27T16:38:04.542Z,56.70
2019-04-27T16:42:14.184Z,52.30
2019-04-27T16:46:21.039Z,52.90
2019-04-27T16:50:26.746Z,53.00
2019-04-27T16:54:32.858Z,49.90
2019-04-27T16:58:39.714Z,50.40
2019-04-27T17:02:45.716Z,51.70
2019-04-27T17:06:51.697Z,51.30
2019-04-27T17:11:07.854Z,51.60
2019-04-27T17:15:23.558Z,51.90
2019-04-27T17:19:30.893Z,52.70
2019-04-27T17:23:36.569Z,53.60
2019-04-27T17:27:48.261Z,52.20
2019-04-27T17:31:56.727Z,52.30
2019-04-27T17:36:03.040Z,53.40
2019-04-27T17:40:09.509Z,51.90
2019-04-27T17:44:19.269Z,51.80
2019-04-27T17:48:22.856Z,52.30
2019-04-27T17:52:28.720Z,51.10
2019-04-27T17:56:36.353Z,50.60
2019-04-27T18:00:44.514Z,56.10
2019-04-27T18:04:49.413Z,59.30
2019-04-27T18:08:59.769Z,59.20
2019-04-27T18:13:02.590Z,59.80
2019-04-27T18:17:11.966Z,57.90
2019-04-27T18:21:19.453Z,61.10
2019-04-27T18:25:23.746Z,59.50
2019-04-27T18:29:30.819Z,61.40
2019-04-27T18:33:38.348Z,63.80
2019-04-27T18:37:44.096Z,71.20
2019-04-27T18:41:54.326Z,68.90
2019-04-27T18:45:59.282Z,67.80
2019-04-27T18:50:17.770Z,70.40
2019-04-27T18:54:23.740Z,66.50
2019-04-27T18:58:29.424Z,68.20
2019-04-27T19:02:35.105Z,74.80
2019-04-27T19:06:40.833Z,80.00
2019-04-27T19:10:46.512Z,80.90
2019-04-27T19:14:53.182Z,83.20
2019-04-27T19:19:00.477Z,81.40
2019-04-27T19:23:06.251Z,79.70
2019-04-27T19:27:20.581Z,81.60
2019-04-27T19:31:29.119Z,83.70
2019-04-27T19:35:34.861Z,82.70
2019-04-27T19:39:40.604Z,78.20
2019-04-27T19:43:46.381Z,80.90
2019-04-27T19:47:52.247Z,82.00
2019-04-27T19:51:58.846Z,82.00
2019-04-27T19:56:04.729Z,78.50
2019-04-27T20:00:15.647Z,75.60
2019-04-27T20:04:31.919Z,75.10
2019-04-27T20:08:42.174Z,74.70
2019-04-27T20:12:47.930Z,73.90
2019-04-27T20:16:53.626Z,74.90
2019-04-27T20:20:59.389Z,74.00
2019-04-27T20:25:06.539Z,76.90
2019-04-27T20:29:12.192Z,76.90
2019-04-27T20:33:17.911Z,77.80
2019-04-27T20:37:23.629Z,78.10
2019-04-27T20:41:29.337Z,78.50
2019-04-27T20:45:35.095Z,78.60
2019-04-27T20:49:40.763Z,81.10
2019-04-27T20:53:53.827Z,82.30
2019-04-27T20:58:02.707Z,82.80
2019-04-27T21:02:24.823Z,80.40
2019-04-27T21:06:35.172Z,82.00
2019-04-27T21:10:41.369Z,83.10
2019-04-27T21:14:47.081Z,83.10
2019-04-27T21:18:53.741Z,81.80
2019-04-27T21:22:59.442Z,82.50
2019-04-27T21:27:05.191Z,80.50
2019-04-27T21:31:12.659Z,81.20
2019-04-27T21:35:18.284Z,79.20
2019-04-27T21:39:23.978Z,78.80
2019-04-27T21:43:29.668Z,78.40
2019-04-27T21:47:35.355Z,80.10
2019-04-27T21:51:42.916Z,81.00
2019-04-27T21:55:50.774Z,81.60
2019-04-27T21:59:57.638Z,82.20
2019-04-27T22:04:04.650Z,82.10
2019-04-27T22:08:11.666Z,84.00
2019-04-27T22:12:21.317Z,83.00
2019-04-27T22:16:28.102Z,82.50
2019-04-27T22:20:35.071Z,83.40
2019-04-27T22:24:42.802Z,83.90
2019-04-27T22:28:49.597Z,83.70
2019-04-27T22:32:55.672Z,82.80
2019-04-27T22:37:02.686Z,82.60
2019-04-27T22:41:10.558Z,82.60
2019-04-27T22:45:19.277Z,82.10
2019-04-27T22:49:24.966Z,82.30
2019-04-27T22:53:32.415Z,81.50
2019-04-27T22:57:41.403Z,80.90
2019-04-27T23:01:51.729Z,81.20
2019-04-27T23:05:57.490Z,81.50
2019-04-27T23:10:03.969Z,82.10
2019-04-27T23:14:11.054Z,82.80
2019-04-27T23:18:17.902Z,83.60
2019-04-27T23:22:23.597Z,83.80
2019-04-27T23:26:31.056Z,84.30
2019-04-27T23:30:44.465Z,84.80
2019-04-27T23:34:51.446Z,84.90
2019-04-27T23:38:58.149Z,84.10
2019-04-27T23:43:03.836Z,83.70
2019-04-27T23:47:09.537Z,84.30
2019-04-27T23:51:16.851Z,82.60
2019-04-27T23:55:24.148Z,82.80
2019-04-27T23:59:31.493Z,82.90
